Time;durP1;ratioP1;P1;durP2;ratioP2;P2;SDS_P1;SDS_P2;PMS_P1;PMS_P2;Temp;Humidity;BMP_temperature;BMP_pressure;BME280_temperature;BME280_humidity;BME280_pressure;Samples;Min_cycle;Max_cycle;Signal;HPM_P1;HPM_P2
2021/10/31 00:04:31;;;;;;;24.00;17.17;;;;;;;;;;10490453;28;20473;-81
2021/10/31 00:09:32;;;;;;;23.55;16.75;;;;;;;;;;10459561;28;20509;-81
2021/10/31 00:14:32;;;;;;;28.07;17.00;;;;;;;;;;10460030;28;20035;-81
2021/10/31 00:19:33;;;;;;;23.00;15.57;;;;;;;;;;10459232;28;20784;-81
2021/10/31 00:24:33;;;;;;;28.23;16.27;;;;;;;;;;10481439;28;20449;-82
2021/10/31 00:29:34;;;;;;;24.80;16.50;;;;;;;;;;10464838;28;20049;-81
2021/10/31 00:34:34;;;;;;;26.13;16.38;;;;;;;;;;10473179;28;20962;-81
2021/10/31 00:39:35;;;;;;;28.57;16.03;;;;;;;;;;10458187;28;20020;-81
2021/10/31 00:44:35;;;;;;;23.93;17.00;;;;;;;;;;10458453;28;20558;-81
2021/10/31 00:49:36;;;;;;;22.80;16.90;;;;;;;;;;10457972;28;20473;-81
2021/10/31 00:54:37;;;;;;;25.02;15.80;;;;;;;;;;10458353;28;20501;-81
2021/10/31 00:59:37;;;;;;;21.95;16.00;;;;;;;;;;10475032;28;20017;-81
2021/10/31 01:04:43;;;;;;;23.27;16.27;;;;;;;;;;10472167;28;20033;-81
2021/10/31 01:10:11;;;;;;;25.63;16.80;;;;;;;;;;10470196;28;20473;-81
2021/10/31 01:15:14;;;;;;;22.83;16.40;;;;;;;;;;10471687;28;20094;-81
2021/10/31 01:20:24;;;;;;;24.00;16.88;;;;;;;;;;10463895;28;20021;-81
2021/10/31 01:25:51;;;;;;;23.58;16.27;;;;;;;;;;10456174;28;20364;-81
2021/10/31 01:31:06;;;;;;;24.73;17.40;;;;;;;;;;10457433;28;20064;-81
2021/10/31 01:36:10;;;;;;;25.60;16.80;;;;;;;;;;10467072;28;20059;-80
2021/10/31 01:41:41;;;;;;;23.60;16.27;;;;;;;;;;10474623;28;20082;-81
2021/10/31 01:46:54;;;;;;;24.75;17.35;;;;;;;;;;10456809;28;20037;-81
2021/10/31 01:51:57;;;;;;;27.38;18.00;;;;;;;;;;10457469;28;20029;-81
2021/10/31 01:57:00;;;;;;;23.92;17.38;;;;;;;;;;10456002;28;20060;-81
2021/10/31 02:02:03;;;;;;;25.48;17.92;;;;;;;;;;10457647;28;20059;-81
2021/10/31 02:07:05;;;;;;;25.05;17.80;;;;;;;;;;10464493;28;20171;-80
2021/10/31 02:12:07;;;;;;;23.00;17.45;;;;;;;;;;10464390;28;20068;-80
2021/10/31 02:17:07;;;;;;;25.85;17.42;;;;;;;;;;10463302;28;20040;-80
2021/10/31 02:22:09;;;;;;;26.67;18.10;;;;;;;;;;10491064;28;20021;-81
2021/10/31 02:27:14;;;;;;;26.95;18.75;;;;;;;;;;10462791;28;20021;-80
2021/10/31 02:32:15;;;;;;;24.15;17.42;;;;;;;;;;10477159;28;20033;-81
2021/10/31 02:37:16;;;;;;;29.90;18.20;;;;;;;;;;10463246;28;20044;-81
2021/10/31 02:42:16;;;;;;;26.23;17.73;;;;;;;;;;10463056;28;20072;-81
2021/10/31 02:47:58;;;;;;;27.30;18.23;;;;;;;;;;10463346;28;20052;-81
2021/10/31 02:53:10;;;;;;;27.45;18.08;;;;;;;;;;10488715;28;20099;-81
2021/10/31 02:58:14;;;;;;;24.30;18.00;;;;;;;;;;10462192;28;20033;-80
2021/10/31 03:03:14;;;;;;;27.73;17.55;;;;;;;;;;10462402;28;20021;-81
2021/10/31 03:08:15;;;;;;;23.23;17.38;;;;;;;;;;10460988;28;20029;-81
2021/10/31 03:13:15;;;;;;;23.60;16.50;;;;;;;;;;10490380;28;20036;-81
2021/10/31 03:18:16;;;;;;;23.50;17.20;;;;;;;;;;10462088;28;20442;-81
2021/10/31 03:23:16;;;;;;;23.63;18.05;;;;;;;;;;10489893;28;20867;-81
2021/10/31 03:28:17;;;;;;;24.35;17.35;;;;;;;;;;10461046;28;20040;-81
2021/10/31 03:33:17;;;;;;;22.90;17.17;;;;;;;;;;10462513;28;20029;-81
2021/10/31 03:38:19;;;;;;;25.10;17.03;;;;;;;;;;10475164;28;20451;-81
2021/10/31 03:43:20;;;;;;;22.83;16.65;;;;;;;;;;10460601;28;20021;-81
2021/10/31 03:48:21;;;;;;;19.63;15.48;;;;;;;;;;10463002;28;20036;-81
2021/10/31 03:53:21;;;;;;;23.70;17.00;;;;;;;;;;10473382;28;20029;-81
2021/10/31 03:58:21;;;;;;;22.60;16.83;;;;;;;;;;10460257;28;20083;-80
2021/10/31 04:03:22;;;;;;;31.00;17.47;;;;;;;;;;10460495;28;20083;-80
2021/10/31 04:08:22;;;;;;;24.58;17.40;;;;;;;;;;10487675;28;20983;-80
2021/10/31 04:13:23;;;;;;;24.70;17.02;;;;;;;;;;10488194;28;20053;-81
2021/10/31 04:18:23;;;;;;;23.77;16.87;;;;;;;;;;10484383;28;20041;-80
2021/10/31 04:23:26;;;;;;;21.87;16.10;;;;;;;;;;10461822;28;20474;-80
2021/10/31 04:28:27;;;;;;;24.85;16.70;;;;;;;;;;10459076;28;20025;-81
2021/10/31 04:33:27;;;;;;;22.73;16.83;;;;;;;;;;10459217;28;20534;-81
2021/10/31 04:38:30;;;;;;;22.93;15.93;;;;;;;;;;10458579;28;20025;-81
2021/10/31 04:43:31;;;;;;;21.15;15.80;;;;;;;;;;10462634;28;20441;-80
2021/10/31 04:48:31;;;;;;;23.25;16.42;;;;;;;;;;10467825;28;20047;-81
2021/10/31 04:53:32;;;;;;;22.97;17.60;;;;;;;;;;10486066;28;20060;-81
2021/10/31 04:58:33;;;;;;;22.45;16.55;;;;;;;;;;10457955;28;20497;-81
2021/10/31 05:03:33;;;;;;;27.85;17.08;;;;;;;;;;10471897;28;20052;-81
2021/10/31 05:08:34;;;;;;;22.17;16.25;;;;;;;;;;10485480;28;20525;-81
2021/10/31 05:13:34;;;;;;;24.57;16.33;;;;;;;;;;10457457;28;20121;-81
2021/10/31 05:18:35;;;;;;;22.00;16.48;;;;;;;;;;10459861;28;21028;-81
2021/10/31 05:23:35;;;;;;;22.25;16.33;;;;;;;;;;10460366;28;20360;-81
2021/10/31 05:28:36;;;;;;;20.00;14.97;;;;;;;;;;10486885;28;20093;-80
2021/10/31 05:33:37;;;;;;;22.40;16.37;;;;;;;;;;10479470;28;20454;-81
2021/10/31 05:38:37;;;;;;;23.70;16.35;;;;;;;;;;10456000;28;20447;-81
2021/10/31 05:43:37;;;;;;;23.17;16.50;;;;;;;;;;10457031;28;20390;-81
2021/10/31 05:48:38;;;;;;;20.47;15.30;;;;;;;;;;10456533;28;20442;-81
2021/10/31 05:53:38;;;;;;;22.88;15.65;;;;;;;;;;10457005;28;20454;-81
2021/10/31 05:58:39;;;;;;;23.40;16.60;;;;;;;;;;10454890;28;20033;-81
2021/10/31 06:03:39;;;;;;;20.67;15.50;;;;;;;;;;10456383;28;20443;-81
2021/10/31 06:08:39;;;;;;;21.03;15.10;;;;;;;;;;10456349;28;20452;-81
2021/10/31 06:13:40;;;;;;;22.65;15.20;;;;;;;;;;10456249;28;20056;-81
2021/10/31 06:18:40;;;;;;;22.93;14.83;;;;;;;;;;10455661;28;20045;-81
2021/10/31 06:23:41;;;;;;;21.63;15.10;;;;;;;;;;10455019;28;20461;-81
2021/10/31 06:28:41;;;;;;;21.40;14.93;;;;;;;;;;10478562;28;20062;-82
2021/10/31 06:33:42;;;;;;;24.63;15.87;;;;;;;;;;10461753;28;20431;-81
2021/10/31 06:38:43;;;;;;;19.50;15.20;;;;;;;;;;10455857;28;20033;-81
2021/10/31 06:43:43;;;;;;;23.47;14.93;;;;;;;;;;10455133;28;20483;-81
2021/10/31 06:48:43;;;;;;;21.27;14.90;;;;;;;;;;10458975;28;20446;-81
2021/10/31 06:53:44;;;;;;;21.57;14.10;;;;;;;;;;10463353;28;20446;-81
2021/10/31 06:58:44;;;;;;;19.73;14.80;;;;;;;;;;10489778;28;20499;-80
2021/10/31 07:03:48;;;;;;;22.67;15.07;;;;;;;;;;10468121;28;20508;-80
2021/10/31 07:08:48;;;;;;;21.77;13.98;;;;;;;;;;10476005;28;20064;-80
2021/10/31 07:13:48;;;;;;;18.77;13.90;;;;;;;;;;10469574;28;20061;-80
2021/10/31 07:18:49;;;;;;;20.63;14.00;;;;;;;;;;10462520;28;20454;-80
2021/10/31 07:23:49;;;;;;;18.50;13.80;;;;;;;;;;10473885;28;20113;-79
2021/10/31 07:28:49;;;;;;;20.60;14.40;;;;;;;;;;10463055;28;20466;-79
2021/10/31 07:33:50;;;;;;;20.20;13.95;;;;;;;;;;10464855;28;20789;-79
2021/10/31 07:38:50;;;;;;;19.52;13.60;;;;;;;;;;10475804;28;20033;-79
2021/10/31 07:43:53;;;;;;;20.33;13.75;;;;;;;;;;10495265;23;20057;-79
2021/10/31 07:48:53;;;;;;;20.25;13.02;;;;;;;;;;10460802;28;20041;-79
2021/10/31 07:53:54;;;;;;;19.50;13.70;;;;;;;;;;10432538;28;20040;-79
2021/10/31 07:58:57;;;;;;;17.87;12.80;;;;;;;;;;10452976;28;20113;-80
2021/10/31 08:03:57;;;;;;;29.63;15.90;;;;;;;;;;10451171;28;20805;-84
2021/10/31 08:08:58;;;;;;;30.30;16.05;;;;;;;;;;10459921;28;20028;-83
2021/10/31 08:13:58;;;;;;;27.90;15.90;;;;;;;;;;10444910;28;20021;-84
2021/10/31 08:18:59;;;;;;;32.20;17.47;;;;;;;;;;10458931;28;20093;-83
2021/10/31 08:23:59;;;;;;;26.73;16.27;;;;;;;;;;10459180;28;20991;-84
2021/10/31 08:29:03;;;;;;;38.25;16.17;;;;;;;;;;10457826;28;20029;-83
2021/10/31 08:34:03;;;;;;;32.92;16.95;;;;;;;;;;10457976;28;20425;-83
2021/10/31 08:39:06;;;;;;;36.80;17.10;;;;;;;;;;10474202;28;20075;-83
2021/10/31 08:44:07;;;;;;;26.42;15.55;;;;;;;;;;10457916;28;20465;-83
2021/10/31 08:49:09;;;;;;;30.67;16.75;;;;;;;;;;10457893;28;20029;-83
2021/10/31 08:54:09;;;;;;;24.70;16.63;;;;;;;;;;10457470;28;20467;-83
2021/10/31 08:59:10;;;;;;;32.92;16.90;;;;;;;;;;10457899;28;20060;-84
2021/10/31 09:04:11;;;;;;;27.63;16.27;;;;;;;;;;10457538;28;20455;-83
2021/10/31 09:09:12;;;;;;;24.03;15.63;;;;;;;;;;10458287;28;20036;-84
2021/10/31 09:14:14;;;;;;;22.88;16.50;;;;;;;;;;10457406;28;20956;-84
2021/10/31 09:19:15;;;;;;;26.17;16.45;;;;;;;;;;10457939;28;20033;-83
2021/10/31 09:24:16;;;;;;;27.23;15.73;;;;;;;;;;10456856;28;20036;-83
2021/10/31 09:29:16;;;;;;;21.57;15.67;;;;;;;;;;10457161;28;20033;-83
2021/10/31 09:34:17;;;;;;;20.95;14.48;;;;;;;;;;10443569;28;20443;-83
2021/10/31 09:39:17;;;;;;;23.70;14.75;;;;;;;;;;10456322;28;20048;-83
2021/10/31 09:49:18;;;;;;;23.77;15.30;;;;;;;;;;10456599;28;20112;-83
2021/10/31 09:54:19;;;;;;;20.05;15.00;;;;;;;;;;10456458;28;20025;-83
2021/10/31 09:59:25;;;;;;;24.80;15.23;;;;;;;;;;10456708;28;20506;-83
2021/10/31 10:04:26;;;;;;;20.80;14.18;;;;;;;;;;10442390;28;20469;-83
2021/10/31 10:09:29;;;;;;;20.80;15.07;;;;;;;;;;10456391;28;20367;-83
2021/10/31 10:14:31;;;;;;;22.67;14.35;;;;;;;;;;10455383;28;20348;-83
2021/10/31 10:19:50;;;;;;;20.75;14.50;;;;;;;;;;10456104;28;20033;-83
2021/10/31 10:24:54;;;;;;;19.40;14.23;;;;;;;;;;10461680;28;20033;-83
2021/10/31 10:29:55;;;;;;;24.00;14.18;;;;;;;;;;10463698;28;20032;-83
2021/10/31 10:34:58;;;;;;;17.48;13.77;;;;;;;;;;10450564;28;20021;-83
2021/10/31 10:40:05;;;;;;;18.98;13.65;;;;;;;;;;10459985;28;20091;-83
2021/10/31 10:45:08;;;;;;;21.48;14.57;;;;;;;;;;10453157;28;20048;-84
2021/10/31 10:50:26;;;;;;;23.08;14.30;;;;;;;;;;10463144;28;20028;-83
2021/10/31 10:55:28;;;;;;;23.25;14.75;;;;;;;;;;10462015;28;20124;-84
2021/10/31 11:00:40;;;;;;;18.02;14.48;;;;;;;;;;10462626;28;20028;-83
2021/10/31 11:05:45;;;;;;;19.98;13.65;;;;;;;;;;10462484;28;20079;-83
2021/10/31 11:11:10;;;;;;;18.10;13.93;;;;;;;;;;10463129;28;20366;-83
2021/10/31 11:16:11;;;;;;;20.60;14.55;;;;;;;;;;10465272;28;20028;-83
2021/10/31 11:21:12;;;;;;;22.40;13.73;;;;;;;;;;10464855;28;20033;-83
2021/10/31 11:26:15;;;;;;;21.60;14.50;;;;;;;;;;10465189;28;20078;-83
2021/10/31 11:31:15;;;;;;;17.77;13.57;;;;;;;;;;10447742;28;20036;-83
2021/10/31 11:36:16;;;;;;;19.88;13.93;;;;;;;;;;10461898;28;20511;-83
2021/10/31 11:41:18;;;;;;;19.23;13.93;;;;;;;;;;10460646;28;20475;-83
2021/10/31 11:46:19;;;;;;;21.17;13.73;;;;;;;;;;10445516;28;20107;-83
2021/10/31 11:51:19;;;;;;;18.50;12.98;;;;;;;;;;10459988;28;20040;-83
2021/10/31 11:56:25;;;;;;;21.07;13.97;;;;;;;;;;10461595;28;20029;-83
2021/10/31 12:01:43;;;;;;;17.58;11.95;;;;;;;;;;10460621;28;20454;-83
2021/10/31 12:06:45;;;;;;;17.85;13.05;;;;;;;;;;10460614;28;20036;-83
2021/10/31 12:11:47;;;;;;;17.48;12.68;;;;;;;;;;10459834;28;20100;-83
2021/10/31 12:16:56;;;;;;;17.77;13.50;;;;;;;;;;10459925;28;20040;-83
2021/10/31 12:22:23;;;;;;;19.88;13.45;;;;;;;;;;10460063;28;20434;-82
2021/10/31 12:27:25;;;;;;;19.45;12.23;;;;;;;;;;10447787;28;20064;-83
2021/10/31 12:32:30;;;;;;;16.45;13.05;;;;;;;;;;10458620;28;20037;-83
2021/10/31 12:37:30;;;;;;;17.08;13.02;;;;;;;;;;10459181;28;20033;-84
2021/10/31 12:42:35;;;;;;;15.45;12.32;;;;;;;;;;10444132;28;20032;-83
2021/10/31 12:48:04;;;;;;;16.95;12.13;;;;;;;;;;10457485;28;20041;-83
2021/10/31 12:53:06;;;;;;;18.05;12.02;;;;;;;;;;10438612;28;20041;-83
2021/10/31 12:58:12;;;;;;;15.43;11.90;;;;;;;;;;10457673;28;20033;-83
2021/10/31 13:03:15;;;;;;;16.88;12.32;;;;;;;;;;10458068;28;20070;-83
2021/10/31 13:08:18;;;;;;;20.85;12.07;;;;;;;;;;10458272;28;20037;-83
2021/10/31 13:13:23;;;;;;;17.38;12.57;;;;;;;;;;10457681;28;20032;-83
2021/10/31 13:18:32;;;;;;;15.43;12.30;;;;;;;;;;10457615;28;20039;-83
2021/10/31 13:23:34;;;;;;;;;;;;;;;;;;10446956;28;20030;-83
2021/10/31 13:28:37;;;;;;;15.57;12.00;;;;;;;;;;10456768;28;20243;-83
2021/10/31 13:33:38;;;;;;;16.98;12.02;;;;;;;;;;10458297;28;20732;-82
2021/10/31 13:38:58;;;;;;;15.70;12.55;;;;;;;;;;10457187;28;20090;-83
2021/10/31 13:44:03;;;;;;;16.17;12.35;;;;;;;;;;10456734;28;20522;-83
2021/10/31 13:49:06;;;;;;;16.13;12.25;;;;;;;;;;10456663;28;20025;-83
2021/10/31 13:54:08;;;;;;;14.15;11.40;;;;;;;;;;10455973;28;20040;-83
2021/10/31 13:59:10;;;;;;;16.23;12.02;;;;;;;;;;10459904;28;20037;-83
2021/10/31 14:04:11;;;;;;;16.90;12.60;;;;;;;;;;10465211;28;20108;-83
2021/10/31 14:09:14;;;;;;;16.70;12.98;;;;;;;;;;10464436;28;20079;-83
2021/10/31 14:14:30;;;;;;;15.63;11.30;;;;;;;;;;10464551;28;20067;-83
2021/10/31 14:19:31;;;;;;;16.70;12.30;;;;;;;;;;10464752;28;20055;-84
2021/10/31 14:24:32;;;;;;;17.83;12.07;;;;;;;;;;10463508;28;20116;-83
2021/10/31 14:29:32;;;;;;;13.85;11.07;;;;;;;;;;10463635;28;20029;-83
2021/10/31 14:34:57;;;;;;;13.93;10.70;;;;;;;;;;10449356;28;20116;-83
2021/10/31 14:39:57;;;;;;;18.00;12.02;;;;;;;;;;10449545;28;20520;-83
2021/10/31 14:45:00;;;;;;;15.25;11.20;;;;;;;;;;10447822;28;20076;-83
2021/10/31 14:50:10;;;;;;;15.23;10.88;;;;;;;;;;10463321;28;20032;-83
2021/10/31 14:55:13;;;;;;;13.15;10.50;;;;;;;;;;10462722;28;20455;-83
2021/10/31 15:00:15;;;;;;;13.98;10.63;;;;;;;;;;10462326;28;20108;-84
2021/10/31 15:05:17;;;;;;;14.25;10.93;;;;;;;;;;10462945;28;20469;-83
2021/10/31 15:10:17;;;;;;;16.55;11.50;;;;;;;;;;10461464;28;20538;-83
2021/10/31 15:15:17;;;;;;;14.60;10.40;;;;;;;;;;10462104;28;20108;-83
2021/10/31 15:20:18;;;;;;;13.37;10.97;;;;;;;;;;10461441;28;20959;-83
2021/10/31 15:25:19;;;;;;;13.90;11.07;;;;;;;;;;10447983;28;20502;-83
2021/10/31 15:30:20;;;;;;;13.23;10.52;;;;;;;;;;10461628;28;20056;-83
2021/10/31 15:35:21;;;;;;;12.40;10.13;;;;;;;;;;10461021;28;20033;-83
2021/10/31 15:40:21;;;;;;;15.00;10.52;;;;;;;;;;10461508;28;20033;-83
2021/10/31 15:45:21;;;;;;;16.53;10.67;;;;;;;;;;10461193;28;20425;-83
2021/10/31 15:50:22;;;;;;;12.30;10.30;;;;;;;;;;10461102;28;20481;-83
2021/10/31 15:55:22;;;;;;;13.07;10.05;;;;;;;;;;10446711;28;20529;-83
2021/10/31 16:00:23;;;;;;;12.02;9.80;;;;;;;;;;10460274;28;20108;-82
2021/10/31 16:05:27;;;;;;;14.37;10.93;;;;;;;;;;10444492;28;20028;-83
2021/10/31 16:10:27;;;;;;;13.13;11.30;;;;;;;;;;10448749;28;20446;-83
2021/10/31 16:15:29;;;;;;;13.97;10.43;;;;;;;;;;10459874;28;20033;-83
2021/10/31 16:20:29;;;;;;;12.95;10.57;;;;;;;;;;10458914;28;20497;-83
2021/10/31 16:25:30;;;;;;;15.15;11.05;;;;;;;;;;10459598;28;20142;-83
2021/10/31 16:30:30;;;;;;;13.88;10.73;;;;;;;;;;10459199;28;20379;-83
2021/10/31 16:35:31;;;;;;;13.43;10.47;;;;;;;;;;10458430;28;20428;-83
2021/10/31 16:40:35;;;;;;;13.27;10.75;;;;;;;;;;10458888;28;20434;-83
2021/10/31 16:45:35;;;;;;;14.50;11.25;;;;;;;;;;10458610;28;20101;-83
2021/10/31 16:50:38;;;;;;;13.73;10.52;;;;;;;;;;10458416;28;20116;-82
2021/10/31 16:55:38;;;;;;;14.10;11.13;;;;;;;;;;10457685;28;20108;-83
2021/10/31 17:00:39;;;;;;;14.37;10.73;;;;;;;;;;10439592;28;20128;-83
2021/10/31 17:05:39;;;;;;;15.02;11.38;;;;;;;;;;10449929;28;20533;-83
2021/10/31 17:10:44;;;;;;;13.20;10.57;;;;;;;;;;10460707;28;20120;-82
2021/10/31 17:15:56;;;;;;;14.35;10.38;;;;;;;;;;10460815;28;20450;-83
2021/10/31 17:20:57;;;;;;;15.68;10.35;;;;;;;;;;10461321;28;20060;-82
2021/10/31 17:25:58;;;;;;;13.75;10.70;;;;;;;;;;10457356;28;20118;-83
2021/10/31 17:30:58;;;;;;;13.63;10.48;;;;;;;;;;10457000;28;20040;-83
2021/10/31 17:35:59;;;;;;;15.88;11.45;;;;;;;;;;10457713;28;20124;-83
2021/10/31 17:40:59;;;;;;;16.73;11.67;;;;;;;;;;10456913;28;20087;-83
2021/10/31 17:46:00;;;;;;;13.35;11.13;;;;;;;;;;10456982;28;20488;-83
2021/10/31 17:51:01;;;;;;;13.27;10.13;;;;;;;;;;10457034;28;20111;-82
2021/10/31 17:56:01;;;;;;;13.32;10.20;;;;;;;;;;10453302;28;20378;-83
2021/10/31 18:01:02;;;;;;;16.20;10.98;;;;;;;;;;10451243;28;20518;-81
2021/10/31 18:06:02;;;;;;;16.13;10.73;;;;;;;;;;10451128;28;20104;-81
2021/10/31 18:11:03;;;;;;;13.77;10.83;;;;;;;;;;10452037;28;20821;-81
2021/10/31 18:16:04;;;;;;;12.82;11.27;;;;;;;;;;10456051;28;20557;-81
2021/10/31 18:21:04;;;;;;;15.82;11.85;;;;;;;;;;10455954;28;20064;-81
2021/10/31 18:26:05;;;;;;;15.70;11.70;;;;;;;;;;10456571;28;20048;-81
2021/10/31 18:31:05;;;;;;;14.43;11.30;;;;;;;;;;10454625;28;20530;-81
2021/10/31 18:36:06;;;;;;;15.90;11.85;;;;;;;;;;10445080;28;20040;-80
2021/10/31 18:41:07;;;;;;;18.45;12.02;;;;;;;;;;10438673;28;20032;-81
2021/10/31 18:46:07;;;;;;;19.63;11.90;;;;;;;;;;10454796;28;20053;-80
2021/10/31 18:51:08;;;;;;;16.33;11.57;;;;;;;;;;10463892;28;20883;-81
2021/10/31 18:56:12;;;;;;;14.80;11.98;;;;;;;;;;10461156;28;20029;-80
2021/10/31 19:01:12;;;;;;;16.73;12.32;;;;;;;;;;10449239;28;20040;-81
2021/10/31 19:06:13;;;;;;;15.73;12.43;;;;;;;;;;10443740;28;20377;-80
2021/10/31 19:11:13;;;;;;;17.50;12.37;;;;;;;;;;10444297;28;20533;-81
2021/10/31 19:16:14;;;;;;;18.40;13.25;;;;;;;;;;10456190;28;20496;-81
2021/10/31 19:21:22;;;;;;;19.08;11.85;;;;;;;;;;10464020;28;20108;-81
2021/10/31 19:26:27;;;;;;;20.35;12.07;;;;;;;;;;10463872;28;20183;-81
2021/10/31 19:31:32;;;;;;;15.50;12.00;;;;;;;;;;10454334;28;20139;-81
2021/10/31 19:36:34;;;;;;;15.95;12.10;;;;;;;;;;10457865;28;20033;-81
2021/10/31 19:41:36;;;;;;;15.52;11.85;;;;;;;;;;10450678;28;20116;-81
2021/10/31 19:46:37;;;;;;;15.43;11.75;;;;;;;;;;10457043;23;20083;-81
2021/10/31 19:51:37;;;;;;;21.98;13.13;;;;;;;;;;10460794;28;20076;-81
2021/10/31 19:56:38;;;;;;;19.40;13.40;;;;;;;;;;10458915;28;20371;-81
2021/10/31 20:01:42;;;;;;;19.70;13.47;;;;;;;;;;10447296;28;20053;-80
2021/10/31 20:06:43;;;;;;;19.25;13.57;;;;;;;;;;10459269;28;20547;-81
2021/10/31 20:11:44;;;;;;;18.50;13.07;;;;;;;;;;10454176;28;20115;-81
2021/10/31 20:16:47;;;;;;;17.85;13.27;;;;;;;;;;10453494;28;20461;-81
2021/10/31 20:21:49;;;;;;;18.98;12.82;;;;;;;;;;10459657;28;20025;-81
2021/10/31 20:26:50;;;;;;;16.73;12.95;;;;;;;;;;10459276;28;20021;-81
2021/10/31 20:31:53;;;;;;;17.02;12.95;;;;;;;;;;10458527;28;20037;-80
2021/10/31 20:36:54;;;;;;;19.20;13.18;;;;;;;;;;10459996;28;20044;-81
2021/10/31 20:41:54;;;;;;;19.35;13.15;;;;;;;;;;10458927;28;20025;-81
2021/10/31 20:46:55;;;;;;;18.17;13.50;;;;;;;;;;10453489;28;20368;-81
2021/10/31 20:51:55;;;;;;;20.23;13.27;;;;;;;;;;10456157;28;20111;-81
2021/10/31 20:56:56;;;;;;;20.53;13.00;;;;;;;;;;10455079;28;20025;-82
2021/10/31 21:01:57;;;;;;;15.75;12.73;;;;;;;;;;10455766;28;20990;-81
2021/10/31 21:07:00;;;;;;;16.75;12.15;;;;;;;;;;10458049;28;20032;-81
2021/10/31 21:12:00;;;;;;;22.80;12.90;;;;;;;;;;10457070;28;20067;-81
2021/10/31 21:17:01;;;;;;;18.65;13.10;;;;;;;;;;10457971;28;20165;-81
2021/10/31 21:22:02;;;;;;;22.77;13.80;;;;;;;;;;10457475;28;20021;-81
2021/10/31 21:27:03;;;;;;;17.33;13.18;;;;;;;;;;10457739;28;20021;-81
2021/10/31 21:32:07;;;;;;;17.98;13.10;;;;;;;;;;10456510;28;20378;-81
2021/10/31 21:37:10;;;;;;;19.52;13.82;;;;;;;;;;10456928;28;20479;-81
2021/10/31 21:42:11;;;;;;;18.77;14.25;;;;;;;;;;10452945;28;20362;-82
2021/10/31 21:47:12;;;;;;;19.30;13.23;;;;;;;;;;10456877;28;20044;-83
2021/10/31 21:52:12;;;;;;;18.00;13.93;;;;;;;;;;10454967;28;20086;-84
2021/10/31 21:57:13;;;;;;;17.50;13.38;;;;;;;;;;10448538;28;20052;-83
2021/10/31 22:02:14;;;;;;;19.55;13.95;;;;;;;;;;10456748;28;20021;-83
2021/10/31 22:07:16;;;;;;;20.13;14.00;;;;;;;;;;10455175;28;20033;-83
2021/10/31 22:12:17;;;;;;;18.30;13.07;;;;;;;;;;10455777;28;20692;-83
2021/10/31 22:17:18;;;;;;;18.42;13.20;;;;;;;;;;10456105;28;20037;-84
2021/10/31 22:22:18;;;;;;;22.63;13.67;;;;;;;;;;10459306;28;20379;-83
2021/10/31 22:27:18;;;;;;;20.10;14.80;;;;;;;;;;10464440;28;20469;-84
2021/10/31 22:32:19;;;;;;;20.03;12.60;;;;;;;;;;10463640;28;20443;-84
2021/10/31 22:37:21;;;;;;;19.25;14.10;;;;;;;;;;10458873;28;20123;-83
2021/10/31 22:42:21;;;;;;;17.20;13.32;;;;;;;;;;10459942;28;20037;-83
2021/10/31 22:47:22;;;;;;;19.57;14.33;;;;;;;;;;10456586;28;20478;-83
2021/10/31 22:52:22;;;;;;;18.92;14.00;;;;;;;;;;10447884;28;20029;-82
2021/10/31 22:57:24;;;;;;;21.98;14.98;;;;;;;;;;10455046;28;20086;-82
2021/10/31 23:02:24;;;;;;;20.55;15.23;;;;;;;;;;10454038;28;20025;-83
2021/10/31 23:07:25;;;;;;;20.80;14.57;;;;;;;;;;10459583;28;20066;-83
2021/10/31 23:12:25;;;;;;;21.43;15.57;;;;;;;;;;10462054;28;20439;-83
2021/10/31 23:17:25;;;;;;;20.77;15.50;;;;;;;;;;10462698;28;20036;-82
2021/10/31 23:22:29;;;;;;;20.07;14.87;;;;;;;;;;10462470;28;20114;-82
2021/10/31 23:27:29;;;;;;;21.48;15.07;;;;;;;;;;10454872;28;20022;-83
2021/10/31 23:32:30;;;;;;;22.07;15.80;;;;;;;;;;10460503;28;20051;-83
2021/10/31 23:37:30;;;;;;;24.02;16.13;;;;;;;;;;10454911;28;20455;-83
2021/10/31 23:42:31;;;;;;;21.60;14.77;;;;;;;;;;10457543;28;20037;-82
2021/10/31 23:47:31;;;;;;;23.03;16.40;;;;;;;;;;10461371;28;20053;-83
2021/10/31 23:52:32;;;;;;;24.88;16.35;;;;;;;;;;10459796;28;20454;-82
2021/10/31 23:57:32;;;;;;;26.20;16.88;;;;;;;;;;10461222;28;20379;-82
